sensor_id;sensor_type;location;lat;lon;timestamp;temperature;humidity
39675;DHT22;27790;50.840;4.386;2023-03-25T00:02:18;11.10;99.90
39675;DHT22;27790;50.840;4.386;2023-03-25T00:04:43;11.10;99.90
39675;DHT22;27790;50.840;4.386;2023-03-25T00:07:09;11.10;99.90
39675;DHT22;27790;50.840;4.386;2023-03-25T00:09:35;11.20;99.90
39675;DHT22;27790;50.840;4.386;2023-03-25T00:12:00;11.30;99.90
39675;DHT22;27790;50.840;4.386;2023-03-25T00:14:26;11.30;99.90
39675;DHT22;27790;50.840;4.386;2023-03-25T00:16:52;11.30;99.90
39675;DHT22;27790;50.840;4.386;2023-03-25T00:19:20;11.20;99.90
39675;DHT22;27790;50.840;4.386;2023-03-25T00:21:47;11.10;99.90
39675;DHT22;27790;50.840;4.386;2023-03-25T00:24:15;11.10;99.90
39675;DHT22;27790;50.840;4.386;2023-03-25T00:26:46;11.10;99.90
39675;DHT22;27790;50.840;4.386;2023-03-25T00:29:13;11.20;99.90
39675;DHT22;27790;50.840;4.386;2023-03-25T00:31:39;11.20;99.90
39675;DHT22;27790;50.840;4.386;2023-03-25T00:34:05;11.10;99.90
39675;DHT22;27790;50.840;4.386;2023-03-25T00:36:31;11.10;99.90
39675;DHT22;27790;50.840;4.386;2023-03-25T00:38:57;11.00;99.90
39675;DHT22;27790;50.840;4.386;2023-03-25T00:41:24;10.90;99.90
39675;DHT22;27790;50.840;4.386;2023-03-25T00:43:58;10.90;99.90
39675;DHT22;27790;50.840;4.386;2023-03-25T00:46:26;11.00;99.90
39675;DHT22;27790;50.840;4.386;2023-03-25T00:48:52;11.20;99.90
39675;DHT22;27790;50.840;4.386;2023-03-25T00:51:19;11.10;99.90
39675;DHT22;27790;50.840;4.386;2023-03-25T00:53:49;11.20;99.90
39675;DHT22;27790;50.840;4.386;2023-03-25T00:56:17;11.20;99.90
39675;DHT22;27790;50.840;4.386;2023-03-25T00:58:43;11.10;99.90
39675;DHT22;27790;50.840;4.386;2023-03-25T01:01:15;11.10;99.90
39675;DHT22;27790;50.840;4.386;2023-03-25T01:03:41;11.10;99.90
39675;DHT22;27790;50.840;4.386;2023-03-25T01:06:12;11.00;99.90
39675;DHT22;27790;50.840;4.386;2023-03-25T01:08:39;11.20;99.90
39675;DHT22;27790;50.840;4.386;2023-03-25T01:11:13;11.20;99.90
39675;DHT22;27790;50.840;4.386;2023-03-25T01:13:40;11.10;99.90
39675;DHT22;27790;50.840;4.386;2023-03-25T01:16:06;11.10;99.90
39675;DHT22;27790;50.840;4.386;2023-03-25T01:18:32;11.20;99.90
39675;DHT22;27790;50.840;4.386;2023-03-25T01:21:05;11.20;99.90
39675;DHT22;27790;50.840;4.386;2023-03-25T01:23:31;11.30;99.90
39675;DHT22;27790;50.840;4.386;2023-03-25T01:25:57;11.30;99.90
39675;DHT22;27790;50.840;4.386;2023-03-25T01:28:22;11.30;99.90
39675;DHT22;27790;50.840;4.386;2023-03-25T01:30:48;11.20;99.90
39675;DHT22;27790;50.840;4.386;2023-03-25T01:33:14;11.10;99.90
39675;DHT22;27790;50.840;4.386;2023-03-25T01:35:40;11.10;99.90
39675;DHT22;27790;50.840;4.386;2023-03-25T01:38:06;11.00;99.90
39675;DHT22;27790;50.840;4.386;2023-03-25T01:40:31;11.10;99.90
39675;DHT22;27790;50.840;4.386;2023-03-25T01:42:57;11.00;99.90
39675;DHT22;27790;50.840;4.386;2023-03-25T01:45:29;11.00;99.90
39675;DHT22;27790;50.840;4.386;2023-03-25T01:48:05;11.00;99.90
39675;DHT22;27790;50.840;4.386;2023-03-25T01:50:37;11.00;99.90
39675;DHT22;27790;50.840;4.386;2023-03-25T01:53:06;10.90;99.90
39675;DHT22;27790;50.840;4.386;2023-03-25T01:55:34;10.80;99.90
39675;DHT22;27790;50.840;4.386;2023-03-25T01:58:02;10.80;99.90
39675;DHT22;27790;50.840;4.386;2023-03-25T02:00:30;10.80;99.90
39675;DHT22;27790;50.840;4.386;2023-03-25T02:02:58;10.80;99.90
39675;DHT22;27790;50.840;4.386;2023-03-25T02:05:37;10.80;99.90
39675;DHT22;27790;50.840;4.386;2023-03-25T02:08:05;10.90;99.90
39675;DHT22;27790;50.840;4.386;2023-03-25T02:10:34;11.00;99.90
39675;DHT22;27790;50.840;4.386;2023-03-25T02:13:01;11.10;99.90
39675;DHT22;27790;50.840;4.386;2023-03-25T02:15:30;11.10;99.90
39675;DHT22;27790;50.840;4.386;2023-03-25T02:25:33;10.80;99.90
39675;DHT22;27790;50.840;4.386;2023-03-25T02:33:32;10.90;99.90
39675;DHT22;27790;50.840;4.386;2023-03-25T02:36:18;10.90;99.90
39675;DHT22;27790;50.840;4.386;2023-03-25T02:38:54;10.80;99.90
39675;DHT22;27790;50.840;4.386;2023-03-25T02:41:35;10.80;99.90
39675;DHT22;27790;50.840;4.386;2023-03-25T02:44:36;10.90;99.90
39675;DHT22;27790;50.840;4.386;2023-03-25T02:47:03;10.90;99.90
39675;DHT22;27790;50.840;4.386;2023-03-25T02:49:36;10.90;99.90
39675;DHT22;27790;50.840;4.386;2023-03-25T02:54:51;10.70;99.90
39675;DHT22;27790;50.840;4.386;2023-03-25T02:57:24;10.70;99.90
39675;DHT22;27790;50.840;4.386;2023-03-25T02:59:53;10.80;99.90
39675;DHT22;27790;50.840;4.386;2023-03-25T03:02:23;10.60;99.90
39675;DHT22;27790;50.840;4.386;2023-03-25T03:04:53;10.70;99.90
39675;DHT22;27790;50.840;4.386;2023-03-25T03:07:24;10.70;99.90
39675;DHT22;27790;50.840;4.386;2023-03-25T03:10:05;10.70;99.90
39675;DHT22;27790;50.840;4.386;2023-03-25T03:18:22;10.60;99.90
39675;DHT22;27790;50.840;4.386;2023-03-25T03:21:09;10.60;99.90
39675;DHT22;27790;50.840;4.386;2023-03-25T03:23:49;10.70;99.90
39675;DHT22;27790;50.840;4.386;2023-03-25T03:32:04;10.30;99.90
39675;DHT22;27790;50.840;4.386;2023-03-25T03:34:44;10.40;99.90
39675;DHT22;27790;50.840;4.386;2023-03-25T03:37:15;10.40;99.90
39675;DHT22;27790;50.840;4.386;2023-03-25T03:39:44;10.40;99.90
39675;DHT22;27790;50.840;4.386;2023-03-25T03:44:48;10.60;99.90
39675;DHT22;27790;50.840;4.386;2023-03-25T03:47:20;10.50;99.90
39675;DHT22;27790;50.840;4.386;2023-03-25T03:50:09;10.40;99.90
39675;DHT22;27790;50.840;4.386;2023-03-25T03:53:01;10.50;99.90
39675;DHT22;27790;50.840;4.386;2023-03-25T03:58:10;10.50;99.90
39675;DHT22;27790;50.840;4.386;2023-03-25T04:01:13;10.50;99.90
39675;DHT22;27790;50.840;4.386;2023-03-25T04:03:44;10.60;99.90
39675;DHT22;27790;50.840;4.386;2023-03-25T04:11:22;10.60;99.90
39675;DHT22;27790;50.840;4.386;2023-03-25T04:13:51;10.60;99.90
39675;DHT22;27790;50.840;4.386;2023-03-25T04:16:18;10.70;99.90
39675;DHT22;27790;50.840;4.386;2023-03-25T04:18:43;10.70;99.90
39675;DHT22;27790;50.840;4.386;2023-03-25T04:21:12;10.60;99.90
39675;DHT22;27790;50.840;4.386;2023-03-25T04:23:39;10.60;99.90
39675;DHT22;27790;50.840;4.386;2023-03-25T04:26:05;10.60;99.90
39675;DHT22;27790;50.840;4.386;2023-03-25T04:28:32;10.50;99.90
39675;DHT22;27790;50.840;4.386;2023-03-25T04:30:57;10.30;99.90
39675;DHT22;27790;50.840;4.386;2023-03-25T04:33:25;10.30;99.90
39675;DHT22;27790;50.840;4.386;2023-03-25T04:35:51;10.30;99.90
39675;DHT22;27790;50.840;4.386;2023-03-25T04:38:17;10.30;99.90
39675;DHT22;27790;50.840;4.386;2023-03-25T04:40:46;10.40;99.90
39675;DHT22;27790;50.840;4.386;2023-03-25T04:43:15;10.30;99.90
39675;DHT22;27790;50.840;4.386;2023-03-25T04:45:42;10.30;99.90
39675;DHT22;27790;50.840;4.386;2023-03-25T04:48:22;10.50;99.90
39675;DHT22;27790;50.840;4.386;2023-03-25T04:50:48;10.40;99.90
39675;DHT22;27790;50.840;4.386;2023-03-25T04:53:16;10.40;99.90
39675;DHT22;27790;50.840;4.386;2023-03-25T04:55:42;10.40;99.90
39675;DHT22;27790;50.840;4.386;2023-03-25T04:58:13;10.50;99.90
39675;DHT22;27790;50.840;4.386;2023-03-25T05:00:39;10.60;99.90
39675;DHT22;27790;50.840;4.386;2023-03-25T05:03:05;10.70;99.90
39675;DHT22;27790;50.840;4.386;2023-03-25T05:05:31;10.70;99.90
39675;DHT22;27790;50.840;4.386;2023-03-25T05:07:56;10.80;99.90
39675;DHT22;27790;50.840;4.386;2023-03-25T05:10:26;10.80;99.90
39675;DHT22;27790;50.840;4.386;2023-03-25T05:13:04;10.60;99.90
39675;DHT22;27790;50.840;4.386;2023-03-25T05:15:32;10.50;99.90
39675;DHT22;27790;50.840;4.386;2023-03-25T05:18:10;10.50;99.90
39675;DHT22;27790;50.840;4.386;2023-03-25T05:20:44;10.40;99.90
39675;DHT22;27790;50.840;4.386;2023-03-25T05:23:12;10.30;99.90
39675;DHT22;27790;50.840;4.386;2023-03-25T05:25:41;10.30;99.90
39675;DHT22;27790;50.840;4.386;2023-03-25T05:28:07;10.30;99.90
39675;DHT22;27790;50.840;4.386;2023-03-25T05:30:35;10.40;99.90
39675;DHT22;27790;50.840;4.386;2023-03-25T05:33:04;10.40;99.90
39675;DHT22;27790;50.840;4.386;2023-03-25T05:35:30;10.60;99.90
39675;DHT22;27790;50.840;4.386;2023-03-25T05:37:55;10.60;99.90
39675;DHT22;27790;50.840;4.386;2023-03-25T05:40:22;10.50;99.90
39675;DHT22;27790;50.840;4.386;2023-03-25T05:42:48;10.60;99.90
39675;DHT22;27790;50.840;4.386;2023-03-25T05:45:15;10.70;99.90
39675;DHT22;27790;50.840;4.386;2023-03-25T05:47:41;10.70;99.90
39675;DHT22;27790;50.840;4.386;2023-03-25T05:50:07;10.80;99.90
39675;DHT22;27790;50.840;4.386;2023-03-25T05:52:35;10.70;99.90
39675;DHT22;27790;50.840;4.386;2023-03-25T05:55:01;10.80;99.90
39675;DHT22;27790;50.840;4.386;2023-03-25T05:57:27;10.80;99.90
39675;DHT22;27790;50.840;4.386;2023-03-25T05:59:53;10.80;99.90
39675;DHT22;27790;50.840;4.386;2023-03-25T06:02:20;10.80;99.90
39675;DHT22;27790;50.840;4.386;2023-03-25T06:04:47;10.80;99.90
39675;DHT22;27790;50.840;4.386;2023-03-25T06:07:15;10.70;99.90
39675;DHT22;27790;50.840;4.386;2023-03-25T06:09:47;10.60;99.90
39675;DHT22;27790;50.840;4.386;2023-03-25T06:12:18;10.50;99.90
39675;DHT22;27790;50.840;4.386;2023-03-25T06:14:45;10.50;99.90
39675;DHT22;27790;50.840;4.386;2023-03-25T06:17:12;10.50;99.90
39675;DHT22;27790;50.840;4.386;2023-03-25T06:19:37;10.40;99.90
39675;DHT22;27790;50.840;4.386;2023-03-25T06:22:10;10.50;99.90
39675;DHT22;27790;50.840;4.386;2023-03-25T06:24:37;10.60;99.90
39675;DHT22;27790;50.840;4.386;2023-03-25T06:27:04;10.90;99.90
39675;DHT22;27790;50.840;4.386;2023-03-25T06:29:34;11.20;99.90
39675;DHT22;27790;50.840;4.386;2023-03-25T06:32:02;11.30;99.90
39675;DHT22;27790;50.840;4.386;2023-03-25T06:34:27;11.40;99.90
39675;DHT22;27790;50.840;4.386;2023-03-25T06:36:53;11.50;99.90
39675;DHT22;27790;50.840;4.386;2023-03-25T06:39:19;11.30;99.90
39675;DHT22;27790;50.840;4.386;2023-03-25T06:41:45;11.20;99.90
39675;DHT22;27790;50.840;4.386;2023-03-25T06:44:12;11.20;99.90
39675;DHT22;27790;50.840;4.386;2023-03-25T06:46:37;11.10;99.90
39675;DHT22;27790;50.840;4.386;2023-03-25T06:49:03;10.90;99.90
39675;DHT22;27790;50.840;4.386;2023-03-25T06:51:29;10.80;99.90
39675;DHT22;27790;50.840;4.386;2023-03-25T06:53:54;10.90;99.90
39675;DHT22;27790;50.840;4.386;2023-03-25T06:56:20;10.80;99.90
39675;DHT22;27790;50.840;4.386;2023-03-25T06:58:46;10.80;99.90
39675;DHT22;27790;50.840;4.386;2023-03-25T07:01:11;10.90;99.90
39675;DHT22;27790;50.840;4.386;2023-03-25T07:03:37;11.30;99.90
39675;DHT22;27790;50.840;4.386;2023-03-25T07:06:04;11.40;99.90
39675;DHT22;27790;50.840;4.386;2023-03-25T07:08:31;11.40;99.90
39675;DHT22;27790;50.840;4.386;2023-03-25T07:11:04;11.50;99.90
39675;DHT22;27790;50.840;4.386;2023-03-25T07:13:30;11.60;99.90
39675;DHT22;27790;50.840;4.386;2023-03-25T07:15:59;11.80;99.90
39675;DHT22;27790;50.840;4.386;2023-03-25T07:18:25;11.80;99.90
39675;DHT22;27790;50.840;4.386;2023-03-25T07:20:50;11.80;99.90
39675;DHT22;27790;50.840;4.386;2023-03-25T07:23:16;11.80;99.90
39675;DHT22;27790;50.840;4.386;2023-03-25T07:25:41;11.80;99.90
39675;DHT22;27790;50.840;4.386;2023-03-25T07:28:07;11.90;99.90
39675;DHT22;27790;50.840;4.386;2023-03-25T07:30:33;11.80;99.90
39675;DHT22;27790;50.840;4.386;2023-03-25T07:32:58;11.90;99.90
39675;DHT22;27790;50.840;4.386;2023-03-25T07:35:24;12.10;99.90
39675;DHT22;27790;50.840;4.386;2023-03-25T07:37:50;12.40;99.90
39675;DHT22;27790;50.840;4.386;2023-03-25T07:40:15;12.40;99.90
39675;DHT22;27790;50.840;4.386;2023-03-25T07:42:41;12.30;99.90
39675;DHT22;27790;50.840;4.386;2023-03-25T07:45:08;12.40;99.90
39675;DHT22;27790;50.840;4.386;2023-03-25T07:47:34;12.40;99.90
39675;DHT22;27790;50.840;4.386;2023-03-25T07:49:59;12.50;99.90
39675;DHT22;27790;50.840;4.386;2023-03-25T07:52:25;12.60;99.90
39675;DHT22;27790;50.840;4.386;2023-03-25T07:54:51;12.50;99.90
39675;DHT22;27790;50.840;4.386;2023-03-25T07:57:16;12.50;99.90
39675;DHT22;27790;50.840;4.386;2023-03-25T07:59:42;12.40;99.90
39675;DHT22;27790;50.840;4.386;2023-03-25T08:02:13;12.50;99.90
39675;DHT22;27790;50.840;4.386;2023-03-25T08:04:39;12.40;99.90
39675;DHT22;27790;50.840;4.386;2023-03-25T08:07:05;12.40;99.90
39675;DHT22;27790;50.840;4.386;2023-03-25T08:09:31;12.30;99.90
39675;DHT22;27790;50.840;4.386;2023-03-25T08:11:56;12.30;99.90
39675;DHT22;27790;50.840;4.386;2023-03-25T08:14:22;12.20;99.90
39675;DHT22;27790;50.840;4.386;2023-03-25T08:16:48;12.30;99.90
39675;DHT22;27790;50.840;4.386;2023-03-25T08:19:13;12.60;99.90
39675;DHT22;27790;50.840;4.386;2023-03-25T08:21:39;13.30;99.90
39675;DHT22;27790;50.840;4.386;2023-03-25T08:24:05;14.20;99.90
39675;DHT22;27790;50.840;4.386;2023-03-25T08:26:32;14.40;99.90
39675;DHT22;27790;50.840;4.386;2023-03-25T08:28:58;14.20;99.90
39675;DHT22;27790;50.840;4.386;2023-03-25T08:31:25;14.00;99.90
39675;DHT22;27790;50.840;4.386;2023-03-25T08:33:55;13.80;99.90
39675;DHT22;27790;50.840;4.386;2023-03-25T08:36:21;13.70;99.90
39675;DHT22;27790;50.840;4.386;2023-03-25T08:38:48;13.70;99.90
39675;DHT22;27790;50.840;4.386;2023-03-25T08:41:14;13.70;99.90
39675;DHT22;27790;50.840;4.386;2023-03-25T08:43:40;13.70;99.90
39675;DHT22;27790;50.840;4.386;2023-03-25T08:46:06;13.70;99.90
39675;DHT22;27790;50.840;4.386;2023-03-25T08:48:32;13.90;99.90
39675;DHT22;27790;50.840;4.386;2023-03-25T08:50:57;13.90;99.90
39675;DHT22;27790;50.840;4.386;2023-03-25T08:53:24;13.90;99.90
39675;DHT22;27790;50.840;4.386;2023-03-25T08:55:52;14.00;99.90
39675;DHT22;27790;50.840;4.386;2023-03-25T08:58:18;14.00;99.50
39675;DHT22;27790;50.840;4.386;2023-03-25T09:00:45;13.80;99.90
39675;DHT22;27790;50.840;4.386;2023-03-25T09:03:11;13.90;99.90
39675;DHT22;27790;50.840;4.386;2023-03-25T09:05:37;13.90;99.90
39675;DHT22;27790;50.840;4.386;2023-03-25T09:08:06;13.80;99.90
39675;DHT22;27790;50.840;4.386;2023-03-25T09:10:32;13.90;99.90
39675;DHT22;27790;50.840;4.386;2023-03-25T09:12:58;13.80;99.90
39675;DHT22;27790;50.840;4.386;2023-03-25T09:15:23;13.60;99.90
39675;DHT22;27790;50.840;4.386;2023-03-25T09:17:49;13.30;99.90
39675;DHT22;27790;50.840;4.386;2023-03-25T09:20:15;13.10;99.90
39675;DHT22;27790;50.840;4.386;2023-03-25T09:22:43;12.60;99.90
39675;DHT22;27790;50.840;4.386;2023-03-25T09:25:09;12.50;99.90
39675;DHT22;27790;50.840;4.386;2023-03-25T09:27:35;12.60;99.90
39675;DHT22;27790;50.840;4.386;2023-03-25T09:30:02;12.80;99.90
39675;DHT22;27790;50.840;4.386;2023-03-25T09:32:28;12.90;99.90
39675;DHT22;27790;50.840;4.386;2023-03-25T09:34:53;13.00;99.90
39675;DHT22;27790;50.840;4.386;2023-03-25T09:37:19;13.00;99.90
39675;DHT22;27790;50.840;4.386;2023-03-25T09:39:45;12.80;99.90
39675;DHT22;27790;50.840;4.386;2023-03-25T09:42:57;12.90;99.90
39675;DHT22;27790;50.840;4.386;2023-03-25T09:50:46;13.40;99.90
39675;DHT22;27790;50.840;4.386;2023-03-25T09:53:26;13.50;99.90
39675;DHT22;27790;50.840;4.386;2023-03-25T09:55:53;13.60;99.90
39675;DHT22;27790;50.840;4.386;2023-03-25T09:58:35;13.50;99.90
39675;DHT22;27790;50.840;4.386;2023-03-25T10:01:19;13.40;99.90
39675;DHT22;27790;50.840;4.386;2023-03-25T10:06:25;13.20;99.90
39675;DHT22;27790;50.840;4.386;2023-03-25T10:19:37;13.90;99.90
39675;DHT22;27790;50.840;4.386;2023-03-25T10:24:59;14.50;99.60
39675;DHT22;27790;50.840;4.386;2023-03-25T10:27:38;14.40;99.90
39675;DHT22;27790;50.840;4.386;2023-03-25T10:33:03;14.70;99.40
39675;DHT22;27790;50.840;4.386;2023-03-25T10:35:34;14.80;99.20
39675;DHT22;27790;50.840;4.386;2023-03-25T10:38:09;15.00;99.00
39675;DHT22;27790;50.840;4.386;2023-03-25T10:40:38;15.00;98.60
39675;DHT22;27790;50.840;4.386;2023-03-25T10:45:53;15.20;99.00
39675;DHT22;27790;50.840;4.386;2023-03-25T10:48:26;15.50;98.10
39675;DHT22;27790;50.840;4.386;2023-03-25T10:51:03;15.60;98.20
39675;DHT22;27790;50.840;4.386;2023-03-25T10:53:31;15.70;96.70
39675;DHT22;27790;50.840;4.386;2023-03-25T10:56:06;15.50;96.80
39675;DHT22;27790;50.840;4.386;2023-03-25T10:58:36;15.50;97.20
39675;DHT22;27790;50.840;4.386;2023-03-25T11:01:14;15.30;98.00
39675;DHT22;27790;50.840;4.386;2023-03-25T11:03:42;15.10;97.50
39675;DHT22;27790;50.840;4.386;2023-03-25T11:06:21;15.30;97.40
39675;DHT22;27790;50.840;4.386;2023-03-25T11:11:37;15.30;97.50
39675;DHT22;27790;50.840;4.386;2023-03-25T11:14:03;15.60;96.80
39675;DHT22;27790;50.840;4.386;2023-03-25T11:16:32;15.60;96.90
39675;DHT22;27790;50.840;4.386;2023-03-25T11:19:02;15.60;96.80
39675;DHT22;27790;50.840;4.386;2023-03-25T11:21:32;15.60;96.70
39675;DHT22;27790;50.840;4.386;2023-03-25T11:24:00;15.50;96.50
39675;DHT22;27790;50.840;4.386;2023-03-25T11:26:28;15.30;97.30
39675;DHT22;27790;50.840;4.386;2023-03-25T11:29:00;15.10;97.70
39675;DHT22;27790;50.840;4.386;2023-03-25T11:31:28;15.00;97.10
39675;DHT22;27790;50.840;4.386;2023-03-25T11:37:23;14.80;97.20
39675;DHT22;27790;50.840;4.386;2023-03-25T11:39:41;14.50;97.60
39675;DHT22;27790;50.840;4.386;2023-03-25T11:44:55;13.90;98.60
39675;DHT22;27790;50.840;4.386;2023-03-25T11:47:35;13.60;99.90
39675;DHT22;27790;50.840;4.386;2023-03-25T11:50:02;13.10;99.90
39675;DHT22;27790;50.840;4.386;2023-03-25T11:52:40;12.80;99.90
39675;DHT22;27790;50.840;4.386;2023-03-25T11:55:19;12.60;99.90
39675;DHT22;27790;50.840;4.386;2023-03-25T11:57:46;12.50;99.90
39675;DHT22;27790;50.840;4.386;2023-03-25T12:00:40;12.50;99.90
39675;DHT22;27790;50.840;4.386;2023-03-25T12:05:38;12.30;99.90
39675;DHT22;27790;50.840;4.386;2023-03-25T12:08:14;12.10;99.90
39675;DHT22;27790;50.840;4.386;2023-03-25T12:27:36;12.60;99.90
39675;DHT22;27790;50.840;4.386;2023-03-25T12:30:22;12.60;99.90
39675;DHT22;27790;50.840;4.386;2023-03-25T12:36:05;12.40;99.90
39675;DHT22;27790;50.840;4.386;2023-03-25T12:38:37;12.40;99.90
39675;DHT22;27790;50.840;4.386;2023-03-25T12:41:19;12.30;99.90
39675;DHT22;27790;50.840;4.386;2023-03-25T12:49:15;11.80;99.90
39675;DHT22;27790;50.840;4.386;2023-03-25T12:59:41;11.70;99.90
39675;DHT22;27790;50.840;4.386;2023-03-25T13:12:40;12.40;99.90
39675;DHT22;27790;50.840;4.386;2023-03-25T13:15:31;12.60;99.90
39675;DHT22;27790;50.840;4.386;2023-03-25T13:20:34;12.50;99.90
39675;DHT22;27790;50.840;4.386;2023-03-25T13:23:05;12.50;99.90
39675;DHT22;27790;50.840;4.386;2023-03-25T13:28:24;12.70;99.90
39675;DHT22;27790;50.840;4.386;2023-03-25T13:30:54;12.70;99.90
39675;DHT22;27790;50.840;4.386;2023-03-25T13:33:27;12.90;99.90
39675;DHT22;27790;50.840;4.386;2023-03-25T13:36:13;13.10;99.90
39675;DHT22;27790;50.840;4.386;2023-03-25T13:38:52;13.20;99.90
39675;DHT22;27790;50.840;4.386;2023-03-25T13:41:33;13.40;99.90
39675;DHT22;27790;50.840;4.386;2023-03-25T13:44:06;13.60;99.90
39675;DHT22;27790;50.840;4.386;2023-03-25T13:49:40;13.40;99.90
39675;DHT22;27790;50.840;4.386;2023-03-25T13:52:08;13.60;99.80
39675;DHT22;27790;50.840;4.386;2023-03-25T13:54:51;13.50;99.50
39675;DHT22;27790;50.840;4.386;2023-03-25T14:00:18;13.90;99.50
39675;DHT22;27790;50.840;4.386;2023-03-25T14:05:29;14.10;98.60
39675;DHT22;27790;50.840;4.386;2023-03-25T14:13:11;14.20;97.90
39675;DHT22;27790;50.840;4.386;2023-03-25T14:15:50;14.20;97.60
39675;DHT22;27790;50.840;4.386;2023-03-25T14:18:19;14.40;97.40
39675;DHT22;27790;50.840;4.386;2023-03-25T14:20:45;14.50;97.40
39675;DHT22;27790;50.840;4.386;2023-03-25T14:23:16;14.70;96.50
39675;DHT22;27790;50.840;4.386;2023-03-25T14:25:58;14.70;96.30
39675;DHT22;27790;50.840;4.386;2023-03-25T14:28:37;14.80;96.10
39675;DHT22;27790;50.840;4.386;2023-03-25T14:44:52;14.80;96.00
39675;DHT22;27790;50.840;4.386;2023-03-25T14:47:30;14.50;96.60
39675;DHT22;27790;50.840;4.386;2023-03-25T14:52:45;14.10;98.70
39675;DHT22;27790;50.840;4.386;2023-03-25T14:55:21;14.00;98.80
39675;DHT22;27790;50.840;4.386;2023-03-25T14:57:59;14.10;99.00
39675;DHT22;27790;50.840;4.386;2023-03-25T15:00:30;14.20;98.60
39675;DHT22;27790;50.840;4.386;2023-03-25T15:03:11;14.20;99.00
39675;DHT22;27790;50.840;4.386;2023-03-25T15:05:39;14.30;98.90
39675;DHT22;27790;50.840;4.386;2023-03-25T15:10:32;14.10;98.50
39675;DHT22;27790;50.840;4.386;2023-03-25T15:13:14;13.70;98.80
39675;DHT22;27790;50.840;4.386;2023-03-25T15:18:09;13.20;99.90
39675;DHT22;27790;50.840;4.386;2023-03-25T15:20:36;13.30;99.40
39675;DHT22;27790;50.840;4.386;2023-03-25T15:25:45;13.70;99.70
39675;DHT22;27790;50.840;4.386;2023-03-25T15:54:54;14.40;97.60
39675;DHT22;27790;50.840;4.386;2023-03-25T15:57:25;14.50;97.70
39675;DHT22;27790;50.840;4.386;2023-03-25T16:02:43;14.40;97.00
39675;DHT22;27790;50.840;4.386;2023-03-25T16:05:12;14.30;96.60
39675;DHT22;27790;50.840;4.386;2023-03-25T16:07:39;14.30;96.90
39675;DHT22;27790;50.840;4.386;2023-03-25T16:13:00;14.00;97.10
39675;DHT22;27790;50.840;4.386;2023-03-25T16:15:28;14.00;97.50
39675;DHT22;27790;50.840;4.386;2023-03-25T16:17:56;13.90;97.50
39675;DHT22;27790;50.840;4.386;2023-03-25T16:20:24;13.90;97.60
39675;DHT22;27790;50.840;4.386;2023-03-25T16:22:53;13.90;97.50
39675;DHT22;27790;50.840;4.386;2023-03-25T16:27:55;14.00;97.60
39675;DHT22;27790;50.840;4.386;2023-03-25T16:30:31;14.10;97.80
39675;DHT22;27790;50.840;4.386;2023-03-25T16:35:43;13.90;97.60
39675;DHT22;27790;50.840;4.386;2023-03-25T16:38:15;13.80;97.60
39675;DHT22;27790;50.840;4.386;2023-03-25T16:40:43;13.90;97.90
39675;DHT22;27790;50.840;4.386;2023-03-25T16:43:15;13.80;97.90
39675;DHT22;27790;50.840;4.386;2023-03-25T16:45:44;13.80;97.80
39675;DHT22;27790;50.840;4.386;2023-03-25T16:48:16;13.80;97.90
39675;DHT22;27790;50.840;4.386;2023-03-25T16:50:43;13.70;97.80
39675;DHT22;27790;50.840;4.386;2023-03-25T16:53:12;13.70;97.90
39675;DHT22;27790;50.840;4.386;2023-03-25T16:56:27;13.60;98.10
39675;DHT22;27790;50.840;4.386;2023-03-25T16:58:35;13.60;98.00
39675;DHT22;27790;50.840;4.386;2023-03-25T17:01:09;13.60;97.60
39675;DHT22;27790;50.840;4.386;2023-03-25T17:03:41;13.70;97.50
39675;DHT22;27790;50.840;4.386;2023-03-25T17:06:23;13.70;97.50
39675;DHT22;27790;50.840;4.386;2023-03-25T17:08:54;13.60;97.70
39675;DHT22;27790;50.840;4.386;2023-03-25T17:11:21;13.60;97.80
39675;DHT22;27790;50.840;4.386;2023-03-25T17:13:51;13.70;98.10
39675;DHT22;27790;50.840;4.386;2023-03-25T17:16:20;13.60;98.10
39675;DHT22;27790;50.840;4.386;2023-03-25T17:18:48;13.60;98.10
39675;DHT22;27790;50.840;4.386;2023-03-25T17:21:24;13.40;98.40
39675;DHT22;27790;50.840;4.386;2023-03-25T17:23:53;13.40;98.50
39675;DHT22;27790;50.840;4.386;2023-03-25T17:26:21;13.40;98.60
39675;DHT22;27790;50.840;4.386;2023-03-25T17:34:06;13.40;98.70
39675;DHT22;27790;50.840;4.386;2023-03-25T17:36:37;13.50;98.70
39675;DHT22;27790;50.840;4.386;2023-03-25T17:41:42;13.60;98.90
39675;DHT22;27790;50.840;4.386;2023-03-25T17:44:14;13.60;98.40
39675;DHT22;27790;50.840;4.386;2023-03-25T17:46:40;13.50;98.80
39675;DHT22;27790;50.840;4.386;2023-03-25T17:49:15;13.50;98.70
39675;DHT22;27790;50.840;4.386;2023-03-25T17:51:42;13.40;98.70
39675;DHT22;27790;50.840;4.386;2023-03-25T17:54:08;13.40;98.90
39675;DHT22;27790;50.840;4.386;2023-03-25T17:56:33;13.40;98.90
39675;DHT22;27790;50.840;4.386;2023-03-25T17:59:05;13.40;98.90
39675;DHT22;27790;50.840;4.386;2023-03-25T18:01:32;13.40;98.80
39675;DHT22;27790;50.840;4.386;2023-03-25T18:03:59;13.30;98.70
39675;DHT22;27790;50.840;4.386;2023-03-25T18:06:25;13.20;98.70
39675;DHT22;27790;50.840;4.386;2023-03-25T18:08:51;13.30;99.00
39675;DHT22;27790;50.840;4.386;2023-03-25T18:11:17;13.20;99.10
39675;DHT22;27790;50.840;4.386;2023-03-25T18:13:43;13.10;99.30
39675;DHT22;27790;50.840;4.386;2023-03-25T18:16:20;13.10;99.40
39675;DHT22;27790;50.840;4.386;2023-03-25T18:18:46;13.10;99.10
39675;DHT22;27790;50.840;4.386;2023-03-25T18:21:13;13.10;99.20
39675;DHT22;27790;50.840;4.386;2023-03-25T18:23:40;13.10;99.40
39675;DHT22;27790;50.840;4.386;2023-03-25T18:26:13;13.10;99.50
39675;DHT22;27790;50.840;4.386;2023-03-25T18:28:39;13.00;99.50
39675;DHT22;27790;50.840;4.386;2023-03-25T18:31:12;13.00;99.50
39675;DHT22;27790;50.840;4.386;2023-03-25T18:33:41;12.90;99.70
39675;DHT22;27790;50.840;4.386;2023-03-25T18:36:08;12.80;99.80
39675;DHT22;27790;50.840;4.386;2023-03-25T18:38:34;12.80;99.90
39675;DHT22;27790;50.840;4.386;2023-03-25T18:40:59;12.70;99.90
39675;DHT22;27790;50.840;4.386;2023-03-25T18:43:25;12.60;99.90
39675;DHT22;27790;50.840;4.386;2023-03-25T18:45:51;12.80;99.90
39675;DHT22;27790;50.840;4.386;2023-03-25T18:48:20;12.70;99.90
39675;DHT22;27790;50.840;4.386;2023-03-25T18:50:57;12.60;99.90
39675;DHT22;27790;50.840;4.386;2023-03-25T18:53:26;12.60;99.90
39675;DHT22;27790;50.840;4.386;2023-03-25T18:55:57;12.60;99.90
39675;DHT22;27790;50.840;4.386;2023-03-25T18:58:27;12.50;99.90
39675;DHT22;27790;50.840;4.386;2023-03-25T19:00:55;12.40;99.90
39675;DHT22;27790;50.840;4.386;2023-03-25T19:03:21;12.40;99.90
39675;DHT22;27790;50.840;4.386;2023-03-25T19:05:59;12.30;99.90
39675;DHT22;27790;50.840;4.386;2023-03-25T19:08:26;12.30;99.90
39675;DHT22;27790;50.840;4.386;2023-03-25T19:10:52;12.30;99.90
39675;DHT22;27790;50.840;4.386;2023-03-25T19:13:18;12.20;99.90
39675;DHT22;27790;50.840;4.386;2023-03-25T19:15:44;12.00;99.90